Flight Track Log - Related Links

Times and Time Zones

All times are in EDT time to prevent confusion due to time zone crossing. See the UCA4838 flight status page for this flight to view local times or setup timezone preferences in your user account.

Time Position Orientation Groundspeed Altitude Reporting Facility
EDT Latitude Longitude Course Direction KTS MPH feet Rate Location/Type
Mon 06:12:30 AM 43.1036 -77.6914 172° South 75 86 1,300  Level Cleveland Center
Mon 06:13:06 AM 43.0783 -77.6867 172° South 148 170 1,800 990 Climbing Cleveland Center
Mon 06:14:07 AM 43.0497 -77.6256 123° Southeast 202 232 2,900 1,103 Climbing Cleveland Center
Mon 06:15:22 AM 43.0206 -77.5447 116° Southeast 205 236 4,300 1,156 Climbing Cleveland Center
Mon 06:16:22 AM 42.9978 -77.4719 113° Southeast 210 242 5,500 1,250 Climbing Cleveland Center
Mon 06:17:22 AM 42.9686 -77.3967 118° Southeast 216 249 6,800 1,300 Climbing Cleveland Center
Mon 06:18:22 AM 42.9417 -77.3244 117° Southeast 216 249 8,100 1,350 Climbing Cleveland Center
Mon 06:19:22 AM 42.9144 -77.2464 115° Southeast 216 249 9,500 1,300 Climbing Cleveland Center
Mon 06:20:22 AM 42.8869 -77.1683 116° Southeast 216 249 10,700 1,050 Climbing Cleveland Center
Mon 06:22:02 AM 42.8408 -77.0350 115° Southeast 221 254 12,300 820 Climbing New York Center
Mon 06:23:03 AM 42.8075 -76.9556 120° Southeast 234 269 12,900 360 Climbing New York Center
Mon 06:23:42 AM 42.7761 -76.8875 122° Southeast 243 280 12,900  Level Boston Center
Mon 06:24:42 AM 42.7339 -76.7939 122° Southeast 271 312 12,900  Level Boston Center
Mon 06:25:42 AM 42.6917 -76.6947 120° Southeast 292 336 12,900  Level Boston Center
Mon 06:26:42 AM 42.6494 -76.6017 122° Southeast 292 336 12,900  Level Boston Center
Mon 06:27:42 AM 42.6050 -76.5056 122° Southeast 292 336 12,900  Level Boston Center
Mon 06:28:42 AM 42.5625 -76.4067 120° Southeast 292 336 12,900  Level Boston Center
Mon 06:29:42 AM 42.5200 -76.3111 121° Southeast 297 342 12,900  Level Boston Center
Mon 06:30:42 AM 42.4772 -76.2156 121° Southeast 297 342 12,900  Level Boston Center
Mon 06:31:42 AM 42.4364 -76.1231 121° Southeast 297 342 12,900  Level Boston Center
Mon 06:32:42 AM 42.3878 -76.0217 123° Southeast 306 352 12,900  Level Boston Center
Mon 06:33:42 AM 42.3447 -75.9264 121° Southeast 304 350 12,900  Level Boston Center
Mon 06:34:42 AM 42.3017 -75.8314 121° Southeast 309 356 12,900  Level Boston Center
Mon 06:35:42 AM 42.2589 -75.7336 121° Southeast 304 350 12,900  Level Boston Center
Mon 06:36:42 AM 42.2136 -75.6358 122° Southeast 304 350 12,900  Level Boston Center
Mon 06:37:42 AM 42.1683 -75.5383 122° Southeast 309 356 12,900  Level Boston Center
Mon 06:38:42 AM 42.1250 -75.4439 122° Southeast 309 356 12,900  Level Boston Center
Mon 06:39:43 AM 42.0817 -75.3522 122° Southeast 309 356 12,900  Level Boston Center
Mon 06:40:42 AM 42.0403 -75.2525 119° Southeast 309 356 12,900 50 Level Boston Center
Mon 06:41:42 AM 42.0031 -75.1531 117° Southeast 304 350 13,000 50 Climbing Boston Center
Mon 06:42:42 AM 41.9661 -75.0481 115° Southeast 304 350 13,000  Level Boston Center
Mon 06:43:42 AM 41.9244 -74.9542 121° Southeast 299 344 13,000 -500 Level Boston Center
Mon 06:44:42 AM 41.8528 -74.8983 150° Southeast 285 328 12,000 -1,150 Descending Boston Center
Mon 06:45:42 AM 41.7808 -74.8456 151° Southeast 293 337 10,700 -1,400 Descending Boston Center
Mon 06:46:42 AM 41.7089 -74.7956 153° Southeast 294 338 9,200 -1,400 Descending Boston Center
Mon 06:47:42 AM 41.6369 -74.7456 153° Southeast 294 338 7,900 -1,100 Descending Boston Center
Mon 06:48:42 AM 41.5692 -74.6989 153° Southeast 288 331 7,000 -800 Descending Boston Center
Mon 06:49:42 AM 41.4992 -74.6547 155° Southeast 283 326 6,300 -504 Descending Boston Center
Mon 06:50:41 AM 41.4333 -74.6000 148° Southeast 273 314 6,000 -151 Descending New York TRACON
Mon 06:51:41 AM 41.3667 -74.5667 159° South 265 305 6,000 -300 Level New York TRACON
Mon 06:52:41 AM 41.3167 -74.5000 135° Southeast 272 313 5,400 -526 Descending New York TRACON
Mon 06:53:35 AM 41.2500 -74.4500 151° Southeast 268 308 5,000 -211 Descending New York TRACON
Mon 06:54:35 AM 41.2000 -74.3833 135° Southeast 261 300 5,000  Level New York TRACON
Mon 06:55:35 AM 41.1333 -74.3333 151° Southeast 258 297 5,000  Level New York TRACON
Mon 06:56:29 AM 41.0833 -74.2833 143° Southeast 258 297 5,000  Level New York TRACON
Mon 06:57:29 AM 41.0333 -74.2333 143° Southeast 258 297 5,000  Level New York TRACON
Mon 06:58:29 AM 40.9667 -74.1667 143° Southeast 262 302 5,000 -474 Level New York TRACON
Mon 06:59:23 AM 40.9167 -74.1167 143° Southeast 264 304 4,100 -1,105 Descending New York TRACON
Mon 07:00:23 AM 40.8500 -74.0833 159° South 235 270 2,900 -947 Descending New York TRACON
Mon 07:01:17 AM 40.8000 -74.0833 180° South 185 213 2,300 -789 Descending New York TRACON
Mon 07:02:17 AM 40.7667 -74.1167 217° Southwest 170 196 1,400 -800 Descending New York TRACON
Mon 07:03:17 AM 40.7333 -74.1500 217° Southwest 137 158 700 -700 Descending New York TRACON
Mon 07:05:00 AM 40.6925 -74.1687 165° South  Level Estimated
Mon 07:12:00 AM 40.6925 -74.1687 165° South  Level Estimated
Mon 07:13:00 AM 40.6925 -74.1687 165° South  Level Estimated

Login

Don't have an account? Register now (free) for customized features, flight alerts, and more!